Flight Track Log - Related Links

Times and Time Zones

All times are in EDT time to prevent confusion due to time zone crossing. See the UAL289 flight status page for this flight to view local times or setup timezone preferences in your user account.

Time Position Orientation Groundspeed Altitude Reporting Facility
EDT Latitude Longitude Course Direction KTS MPH feet Rate Location/Type
Fri 10:18:41 PM 39.9500 -104.7167 270° West 240 276 8,200  Level Denver TRACON
Fri 10:19:41 PM 40.0167 -104.7500 339° North 292 336 10,500 2,214 Climbing Denver TRACON
Fri 10:20:00 PM 39.7310 -105.0525 245° Southwest  Level FlightAware Approximate
Fri 10:20:05 PM 40.0428 -104.7819 317° Northwest 290 334 11,300  Level Denver Center
Fri 10:21:00 PM 39.6852 -105.1783 245° Southwest  Level FlightAware Approximate
Fri 10:21:07 PM 40.0392 -104.9089 268° West 344 396 14,000  Level Denver Center
Fri 10:22:00 PM 39.6442 -105.3063 243° Southwest  Level FlightAware Approximate
Fri 10:22:09 PM 39.9733 -105.0047 228° Southwest 361 415 17,300  Level Denver Center
Fri 10:23:00 PM 39.6000 -105.4313 270° West  Level FlightAware Approximate
Fri 10:23:11 PM 39.9111 -105.1142 233° Southwest 356 410 20,000  Level Denver Center
Fri 10:24:13 PM 39.8631 -105.2314 242° Southwest 368 423 22,000 2,081 Climbing Denver Center
Fri 10:25:15 PM 39.8081 -105.3656 242° Southwest 388 447 24,300 1,935 Climbing Denver Center
Fri 10:26:17 PM 39.7611 -105.4800 242° Southwest 399 459 26,000 1,707 Climbing Denver Center
Fri 10:27:18 PM 39.6972 -105.6356 242° Southwest 420 483 27,800 1,659 Climbing Denver Center
Fri 10:28:20 PM 39.6392 -105.7733 241° Southwest 429 494 29,400 1,452 Climbing Denver Center
Fri 10:29:22 PM 39.5828 -105.9139 243° Southwest 434 499 30,800 1,210 Climbing Denver Center
Fri 10:30:24 PM 39.5217 -106.0592 241° Southwest 451 519 31,900 1,258 Climbing Denver Center
Fri 10:31:26 PM 39.4550 -106.2181 242° Southwest 466 536 33,400 1,016 Climbing Denver Center
Fri 10:32:28 PM 39.3892 -106.3739 241° Southwest 469 540 34,000 290 Climbing Denver Center
Fri 10:33:30 PM 39.3286 -106.5172 241° Southwest 474 545 34,000  Level Denver Center
Fri 10:34:31 PM 39.2669 -106.6589 241° Southwest 473 544 34,000  Level Denver Center
Fri 10:35:33 PM 39.1847 -106.8128 235° Southwest 468 539 34,000  Level Denver Center
Fri 10:36:35 PM 39.1033 -106.9372 230° Southwest 473 544 34,000  Level Denver Center
Fri 10:37:37 PM 39.0092 -107.0811 230° Southwest 469 540 34,000  Level Denver Center
Fri 10:38:39 PM 38.9289 -107.2039 230° Southwest 469 540 34,000  Level Denver Center
Fri 10:39:40 PM 38.8386 -107.3444 231° Southwest 458 527 34,000  Level Denver Center
Fri 10:40:42 PM 38.7589 -107.4667 230° Southwest 463 533 34,000 145 Level Denver Center
Fri 10:41:44 PM 38.6850 -107.5944 233° Southwest 465 535 34,300 780 Climbing Denver Center
Fri 10:42:45 PM 38.6056 -107.7492 237° Southwest 466 536 35,600 829 Climbing Denver Center
Fri 10:43:47 PM 38.5386 -107.8839 238° Southwest 466 536 36,000 195 Climbing Denver Center
Fri 10:44:48 PM 38.4603 -108.0367 237° Southwest 461 531 36,000  Level Denver Center
Fri 10:45:50 PM 38.3928 -108.1678 237° Southwest 461 531 36,000  Level Denver Center
Fri 10:46:52 PM 38.3256 -108.2961 236° Southwest 457 526 36,000  Level Denver Center
Fri 10:47:53 PM 38.2458 -108.4472 236° Southwest 458 527 36,000  Level Denver Center
Fri 10:48:55 PM 38.1781 -108.5767 236° Southwest 458 527 36,000  Level Denver Center
Fri 10:49:57 PM 38.0989 -108.7258 236° Southwest 455 524 36,000  Level Denver Center
Fri 10:50:58 PM 38.0269 -108.8617 236° Southwest 459 528 36,000  Level Denver Center
Fri 10:52:00 PM 37.9581 -108.9867 235° Southwest 455 524 36,000  Level Denver Center
Fri 10:53:01 PM 37.8783 -109.1375 236° Southwest 461 531 36,000  Level Denver Center
Fri 10:54:03 PM 37.8097 -109.2644 236° Southwest 459 528 36,000  Level Denver Center
Fri 10:55:04 PM 37.7289 -109.4139 236° Southwest 462 532 36,000  Level Denver Center
Fri 10:56:06 PM 37.6603 -109.5406 236° Southwest 459 528 36,000  Level Denver Center
Fri 10:57:07 PM 37.5908 -109.6658 235° Southwest 457 526 36,000  Level Denver Center
Fri 10:58:09 PM 37.5100 -109.8128 235° Southwest 457 526 36,000  Level Denver Center
Fri 10:59:10 PM 37.4419 -109.9369 235° Southwest 453 521 36,000  Level Denver Center
Fri 11:00:12 PM 37.3631 -110.0811 235° Southwest 449 517 36,000  Level Denver Center
Fri 11:01:13 PM 37.2903 -110.2122 235° Southwest 451 519 36,000  Level Denver Center
Fri 11:02:15 PM 37.2189 -110.3403 235° Southwest 447 514 36,000  Level Denver Center
Fri 11:03:16 PM 37.1472 -110.4678 235° Southwest 445 512 36,000  Level Denver Center
Fri 11:04:17 PM 37.0753 -110.5964 235° Southwest 449 517 36,000  Level Denver Center
Fri 11:05:19 PM 37.0044 -110.7244 235° Southwest 450 518 36,000  Level Denver Center
Fri 11:06:20 PM 36.9311 -110.8517 234° Southwest 450 518 36,000  Level Denver Center
Fri 11:07:22 PM 36.8594 -110.9789 235° Southwest 449 517 36,000  Level Denver Center
Fri 11:08:23 PM 36.7875 -111.1075 235° Southwest 451 519 36,000  Level Denver Center
Fri 11:09:25 PM 36.7006 -111.2597 235° Southwest 450 518 36,000  Level Denver Center
Fri 11:10:26 PM 36.6261 -111.3875 234° Southwest 451 519 36,000  Level Denver Center
Fri 11:11:28 PM 36.5536 -111.5133 234° Southwest 448 516 36,000  Level Denver Center
Fri 11:12:29 PM 36.4811 -111.6383 234° Southwest 447 514 36,000  Level Denver Center
Fri 11:13:43 PM 36.3931 -111.7889 234° Southwest 447 514 36,000  Level Denver Center
Fri 11:14:38 PM 36.3217 -111.9106 234° Southwest 440 506 36,000  Level Los Angeles Center
Fri 11:15:40 PM 36.2492 -112.0353 234° Southwest 444 511 36,000  Level Los Angeles Center
Fri 11:16:42 PM 36.1756 -112.1586 234° Southwest 446 513 36,000  Level Los Angeles Center
Fri 11:17:43 PM 36.1017 -112.2833 234° Southwest 446 513 36,000  Level Los Angeles Center
Fri 11:18:45 PM 36.0311 -112.4042 234° Southwest 436 502 36,000  Level Los Angeles Center
Fri 11:19:47 PM 35.9572 -112.5272 233° Southwest 443 510 36,000  Level Los Angeles Center
Fri 11:20:48 PM 35.8872 -112.6450 234° Southwest 443 510 36,000  Level Los Angeles Center
Fri 11:21:50 PM 35.8022 -112.7881 234° Southwest 435 501 36,000  Level Los Angeles Center
Fri 11:22:52 PM 35.7317 -112.9050 233° Southwest 431 496 36,000  Level Los Angeles Center
Fri 11:23:53 PM 35.6619 -113.0203 233° Southwest 428 493 36,000  Level Los Angeles Center
Fri 11:24:55 PM 35.5917 -113.1361 233° Southwest 424 488 36,000  Level Los Angeles Center
Fri 11:25:57 PM 35.5206 -113.2550 234° Southwest 429 494 36,000  Level Los Angeles Center
Fri 11:26:58 PM 35.4406 -113.3861 233° Southwest 421 484 36,000  Level Los Angeles Center
Fri 11:28:00 PM 35.3711 -113.4997 233° Southwest 421 484 36,000  Level Los Angeles Center
Fri 11:29:02 PM 35.3003 -113.6150 233° Southwest 426 490 36,000  Level Los Angeles Center
Fri 11:30:04 PM 35.2283 -113.7325 233° Southwest 432 497 36,000 -146 Level Los Angeles Center
Fri 11:31:05 PM 35.1556 -113.8503 233° Southwest 432 497 35,700 -683 Descending Los Angeles Center
Fri 11:32:07 PM 35.0764 -113.9767 233° Southwest 432 497 34,600 -1,403 Descending Los Angeles Center
Fri 11:33:09 PM 35.0033 -114.0936 233° Southwest 433 498 32,800 -1,452 Descending Los Angeles Center
Fri 11:34:11 PM 34.9275 -114.2172 233° Southwest 451 519 31,600 -1,258 Descending Los Angeles Center
Fri 11:35:13 PM 34.8367 -114.3622 233° Southwest 448 516 30,200 -780 Descending Los Angeles Center
Fri 11:36:14 PM 34.7586 -114.4800 231° Southwest 446 513 30,000 -98 Descending Los Angeles Center
Fri 11:37:16 PM 34.6683 -114.5872 224° Southwest 451 519 30,000  Level Los Angeles Center
Fri 11:38:18 PM 34.5881 -114.6764 222° Southwest 441 507 30,000 -339 Level Los Angeles Center
Fri 11:39:20 PM 34.4792 -114.8017 223° Southwest 449 517 29,300 -1,171 Descending Los Angeles Center
Fri 11:40:21 PM 34.3894 -114.9031 223° Southwest 443 510 27,600 -1,463 Descending Los Angeles Center
Fri 11:41:23 PM 34.3000 -115.0053 223° Southwest 443 510 26,300 -774 Descending Los Angeles Center
Fri 11:42:25 PM 34.2111 -115.1039 223° Southwest 436 502 26,000 -145 Descending Los Angeles Center
Fri 11:43:27 PM 34.1225 -115.2044 223° Southwest 438 504 26,000  Level Los Angeles Center
Fri 11:44:40 PM 34.0350 -115.3022 223° Southwest 433 498 26,000  Level Los Angeles Center
Fri 11:45:42 PM 33.9308 -115.4189 223° Southwest 429 494 26,000  Level Los Angeles Center
Fri 11:46:44 PM 33.8261 -115.5347 223° Southwest 427 491 26,000  Level Los Angeles Center
Fri 11:47:46 PM 33.7386 -115.6333 223° Southwest 429 494 26,000  Level Los Angeles Center
Fri 11:48:48 PM 33.6481 -115.7314 222° Southwest 438 504 26,000 -341 Level Los Angeles Center
Fri 11:49:49 PM 33.5739 -115.8436 232° Southwest 432 497 25,300 -976 Descending Los Angeles Center
Fri 11:50:51 PM 33.5019 -115.9567 233° Southwest 425 489 24,000 -919 Descending Los Angeles Center
Fri 11:51:53 PM 33.4128 -116.0461 220° Southwest 418 481 23,400 -1,171 Descending Los Angeles Center
Fri 11:52:54 PM 33.3428 -116.1153 220° Southwest 414 476 21,600 -2,585 Descending Los Angeles Center
Fri 11:53:56 PM 33.2200 -116.2364 220° Southwest 410 472 18,100 -2,806 Descending Los Angeles Center
Fri 11:54:58 PM 33.1339 -116.3208 219° Southwest 405 466 15,800 -2,390 Descending Los Angeles Center
Fri 11:55:59 PM 33.0489 -116.4033 219° Southwest 399 459 13,200 -1,854 Descending Los Angeles Center
Fri 11:57:01 PM 32.9589 -116.4708 212° Southwest 377 434 12,000 -927 Descending Los Angeles Center
Fri 11:58:02 PM 32.8747 -116.5200 206° Southwest 341 392 11,300 -1,024 Descending Los Angeles Center
Fri 11:59:04 PM 32.8092 -116.6039 227° Southwest 316 364 9,900 -1,359 Descending Los Angeles Center
Sat 12:00:10 AM 32.7694 -116.6892 241° Southwest 302 348 8,400 -1,355 Descending Los Angeles Center
Sat 12:01:08 AM 32.7075 -116.7408 215° Southwest 276 318 7,100 -1,160 Descending Los Angeles Center
Sat 12:02:09 AM 32.6494 -116.7892 215° Southwest 262 302 6,100 -934 Descending Los Angeles Center
Sat 12:03:10 AM 32.6561 -116.8606 276° West 227 261 5,200 -699 Descending Los Angeles Center
Sat 12:03:52 AM 32.6667 -116.9167 283° West 186 214 4,900 -816 Descending Southern California TRACON
Sat 12:04:53 AM 32.6833 -116.9667 292° West 168 193 3,800 -1,150 Descending Southern California TRACON
Sat 12:05:52 AM 32.6833 -117.0167 270° West 170 196 2,600 -900 Descending Southern California TRACON
Sat 12:06:53 AM 32.7000 -117.0667 292° West 157 181 2,000 -694 Descending Southern California TRACON
Sat 12:07:53 AM 32.7167 -117.1167 292° West 134 154 1,200 -776 Descending Southern California TRACON
Sat 12:08:18 AM 32.7181 -117.1267 279° West 137 158 900 -551 Descending Los Angeles Center
Sat 12:09:31 AM 32.7308 -117.1792 286° West 131 151 300 -493 Descending Los Angeles Center

Login

Don't have an account? Register now (free) for customized features, flight alerts, and more!